Time;durP1;ratioP1;P1;durP2;ratioP2;P2;SDS_P1;SDS_P2;PMS_P1;PMS_P2;Temp;Humidity;BMP_temperature;BMP_pressure;BME280_temperature;BME280_humidity;BME280_pressure;Samples;Min_cycle;Max_cycle;Signal;HPM_P1;HPM_P2
2021/01/20 00:00:56;;;;;;;11.53;6.85;;;;;;;1.05;78.46;97429.85;1785105;80;21037;-75
2021/01/20 00:03:22;;;;;;;15.83;7.37;;;;;;;1.11;78.18;97430.27;1785245;79;21078;-74
2021/01/20 00:05:49;;;;;;;12.15;7.05;;;;;;;1.17;77.80;97424.49;1785144;80;21020;-75
2021/01/20 00:08:15;;;;;;;12.45;6.35;;;;;;;1.21;77.72;97429.67;1785177;79;21063;-74
2021/01/20 00:10:41;;;;;;;15.08;7.72;;;;;;;1.20;77.79;97431.21;1785101;80;21241;-74
2021/01/20 00:13:07;;;;;;;9.70;6.03;;;;;;;1.22;77.63;97437.16;1785103;79;21109;-74
2021/01/20 00:15:33;;;;;;;7.87;4.12;;;;;;;1.27;77.48;97436.72;1785113;80;21122;-75
2021/01/20 00:18:00;;;;;;;15.80;6.70;;;;;;;1.27;77.42;97447.39;1785146;79;21023;-75
2021/01/20 00:20:26;;;;;;;12.25;6.87;;;;;;;1.26;77.50;97443.62;1785156;80;21023;-75
2021/01/20 00:22:54;;;;;;;8.60;4.53;;;;;;;1.29;77.26;97443.99;1785240;79;21416;-75
2021/01/20 00:25:20;;;;;;;11.63;6.60;;;;;;;1.27;77.50;97453.26;1785065;80;21103;-75
2021/01/20 00:27:46;;;;;;;9.18;5.25;;;;;;;1.27;77.38;97448.73;1785204;79;21166;-76
2021/01/20 00:30:14;;;;;;;8.28;5.40;;;;;;;1.28;77.38;97454.87;1785109;80;21530;-75
2021/01/20 00:32:40;;;;;;;11.65;5.78;;;;;;;1.29;77.38;97455.19;1785221;79;21091;-75
2021/01/20 00:35:08;;;;;;;14.60;7.80;;;;;;;1.30;77.49;97461.63;1785124;80;21235;-75
2021/01/20 00:37:35;;;;;;;15.33;7.07;;;;;;;1.36;77.33;97462.01;1785430;79;21090;-75
2021/01/20 00:40:02;;;;;;;29.72;15.63;;;;;;;1.35;77.43;97459.05;1785131;80;21673;-74
2021/01/20 00:42:28;;;;;;;12.40;7.30;;;;;;;1.31;77.50;97456.58;1785118;79;21507;-74
2021/01/20 00:44:55;;;;;;;9.75;5.92;;;;;;;1.31;77.56;97457.91;1785163;80;21071;-74
2021/01/20 00:47:21;;;;;;;41.08;19.15;;;;;;;1.34;77.46;97461.96;1785278;80;21519;-74
2021/01/20 00:49:47;;;;;;;9.10;6.15;;;;;;;1.32;77.56;97454.19;1788755;79;21090;-74
2021/01/20 00:52:13;;;;;;;7.95;5.62;;;;;;;1.33;77.49;97447.80;1799705;79;21126;-74
2021/01/20 00:54:40;;;;;;;9.18;6.42;;;;;;;1.34;77.42;97448.61;1799679;78;21041;-75
2021/01/20 00:57:06;;;;;;;11.22;7.17;;;;;;;1.33;77.47;97446.99;1799694;79;21470;-75
2021/01/20 00:59:32;;;;;;;19.37;10.93;;;;;;;1.30;77.60;97450.14;1780628;79;21260;-75
2021/01/20 01:01:58;;;;;;;8.78;5.70;;;;;;;1.32;77.58;97448.04;1780619;80;21150;-75
2021/01/20 01:04:25;;;;;;;9.15;5.35;;;;;;;1.35;77.71;97448.37;1780685;79;21389;-74
2021/01/20 01:06:51;;;;;;;8.98;5.05;;;;;;;1.36;77.73;97454.00;1780813;80;21154;-75
2021/01/20 01:09:19;;;;;;;8.50;5.40;;;;;;;1.37;77.69;97456.17;1780710;79;21404;-74
2021/01/20 01:11:45;;;;;;;9.25;3.22;;;;;;;1.34;77.78;97450.76;1780709;80;22059;-75
2021/01/20 01:14:12;;;;;;;10.93;7.25;;;;;;;1.37;77.62;97452.17;1780713;79;21059;-75
2021/01/20 01:16:39;;;;;;;8.80;4.65;;;;;;;1.31;77.81;97449.91;1780722;80;21135;-75
2021/01/20 01:19:05;;;;;;;9.50;6.40;;;;;;;1.30;77.84;97450.14;1780768;79;21106;-76
2021/01/20 01:21:31;;;;;;;10.80;5.95;;;;;;;1.28;78.14;97450.38;1731847;82;21143;-76
2021/01/20 01:23:57;;;;;;;22.52;11.12;;;;;;;1.30;78.28;97448.80;1780640;79;21277;-76
2021/01/20 01:26:23;;;;;;;16.35;7.12;;;;;;;1.29;78.23;97449.33;1731759;82;21147;-76
2021/01/20 01:28:49;;;;;;;9.15;5.80;;;;;;;1.28;78.27;97447.71;1780653;79;21047;-76
2021/01/20 01:31:15;;;;;;;15.25;9.35;;;;;;;1.28;78.44;97454.87;1736130;81;21061;-78
2021/01/20 01:33:42;;;;;;;10.08;5.47;;;;;;;1.30;78.20;97454.14;1749816;81;21090;-76
2021/01/20 01:36:08;;;;;;;13.85;6.47;;;;;;;1.32;78.12;97442.70;1749900;82;22132;-76
2021/01/20 01:38:35;;;;;;;13.83;7.10;;;;;;;1.32;78.19;97445.38;1749857;82;21090;-76
2021/01/20 01:41:01;;;;;;;40.00;15.08;;;;;;;1.32;78.15;97446.70;1749906;82;21134;-76
2021/01/20 01:43:27;;;;;;;12.15;5.67;;;;;;;1.35;78.18;97446.23;1749889;82;21102;-76
2021/01/20 01:45:53;;;;;;;22.48;9.03;;;;;;;1.41;78.18;97453.31;1780922;80;21083;-76
2021/01/20 01:48:19;;;;;;;15.30;7.70;;;;;;;1.37;78.10;97449.50;1780831;79;21269;-76
2021/01/20 01:50:49;;;;;;;17.73;7.55;;;;;;;1.37;78.08;97453.50;1779134;79;21039;-76
2021/01/20 01:53:15;;;;;;;30.15;11.22;;;;;;;1.36;78.22;97450.52;1778151;79;21048;-75
2021/01/20 01:55:41;;;;;;;9.88;4.85;;;;;;;1.39;78.11;97446.06;1778102;80;21110;-74
2021/01/20 01:58:08;;;;;;;20.30;8.68;;;;;;;1.38;78.16;97442.59;1778164;79;21070;-74
2021/01/20 02:00:34;;;;;;;22.02;8.45;;;;;;;1.40;78.14;97445.83;1778074;80;21460;-75
2021/01/20 02:03:01;;;;;;;37.05;13.45;;;;;;;1.38;78.29;97443.92;1778075;79;21142;-75
2021/01/20 02:05:27;;;;;;;41.00;13.03;;;;;;;1.46;78.53;97448.09;1753857;80;21027;-75
2021/01/20 02:07:55;;;;;;;23.22;9.85;;;;;;;1.48;78.42;97453.19;1778048;79;21043;-75
2021/01/20 02:10:21;;;;;;;32.42;10.82;;;;;;;1.42;78.56;97449.59;1778058;80;21130;-75
2021/01/20 02:13:26;;;;;;;21.40;8.13;;;;;;;1.41;78.55;97451.45;1778124;79;21235;-75
2021/01/20 02:16:19;;;;;;;12.58;5.10;;;;;;;1.43;78.54;97461.08;1777590;80;21071;-76
2021/01/20 02:18:51;;;;;;;21.73;9.80;;;;;;;1.47;78.75;97447.03;1778057;79;21127;-74
2021/01/20 02:21:49;;;;;;;20.65;8.20;;;;;;;1.46;78.89;97455.29;1754988;80;21484;-75
2021/01/20 02:24:15;;;;;;;13.08;6.70;;;;;;;1.46;78.75;97452.62;1777823;79;21075;-74
2021/01/20 02:26:59;;;;;;;18.17;8.25;;;;;;;1.44;78.67;97454.16;1778017;80;21181;-74
2021/01/20 02:29:42;;;;;;;19.57;9.20;;;;;;;1.43;79.00;97457.07;1777967;79;21119;-75
2021/01/20 02:32:09;;;;;;;11.97;6.17;;;;;;;1.47;79.06;97457.72;1778193;80;21464;-75
2021/01/20 02:34:35;;;;;;;9.98;5.33;;;;;;;1.53;78.98;97450.08;1778029;79;21075;-74
2021/01/20 02:37:02;;;;;;;9.45;5.00;;;;;;;1.53;78.93;97456.76;1778088;80;21559;-75
2021/01/20 02:39:29;;;;;;;10.48;5.75;;;;;;;1.51;78.92;97462.05;1778013;79;21190;-74
2021/01/20 02:42:04;;;;;;;5.95;2.90;;;;;;;1.46;78.97;97460.10;1777981;80;21123;-74
2021/01/20 02:44:36;;;;;;;5.00;2.95;;;;;;;1.46;79.16;97460.63;1777379;79;21150;-74
2021/01/20 02:47:04;;;;;;;8.80;4.72;;;;;;;1.48;79.15;97466.54;1778134;80;21138;-75
2021/01/20 02:49:31;;;;;;;4.50;2.85;;;;;;;1.49;79.22;97462.30;1777988;79;21126;-75
2021/01/20 02:52:05;;;;;;;6.58;3.40;;;;;;;1.51;79.20;97458.05;1778045;80;21393;-75
2021/01/20 02:54:32;;;;;;;9.03;4.35;;;;;;;1.50;79.19;97462.58;1777757;79;21095;-75
2021/01/20 02:56:58;;;;;;;3.92;2.00;;;;;;;1.49;79.25;97461.48;1778001;80;21023;-75
2021/01/20 02:59:25;;;;;;;9.63;4.28;;;;;;;1.53;78.90;97457.28;1778122;79;21103;-75
2021/01/20 03:01:54;;;;;;;7.17;3.35;;;;;;;1.48;79.06;97459.86;1754042;80;21102;-75
2021/01/20 03:04:20;;;;;;;;;;;;;;;1.50;79.01;97455.09;1780658;79;21191;-75
2021/01/20 03:06:46;;;;;;;8.00;3.85;;;;;;;1.50;79.09;97458.57;1777916;80;20218;-75
2021/01/20 03:09:14;;;;;;;8.90;4.87;;;;;;;1.49;79.17;97451.61;1777984;79;21094;-75
2021/01/20 03:11:49;;;;;;;6.00;3.75;;;;;;;1.51;79.43;97457.52;1777968;80;21150;-75
2021/01/20 03:14:20;;;;;;;5.75;3.00;;;;;;;1.52;79.44;97455.66;1777670;79;21032;-75
2021/01/20 03:16:46;;;;;;;8.30;3.75;;;;;;;1.53;79.43;97463.44;1778100;80;21190;-75
2021/01/20 03:19:12;;;;;;;4.83;2.83;;;;;;;1.54;79.42;97454.41;1777924;79;21079;-75
2021/01/20 03:21:39;;;;;;;8.35;4.55;;;;;;;1.55;79.38;97460.55;1777983;80;21039;-75
2021/01/20 03:31:41;;;;;;;6.75;3.45;;;;;;;1.58;79.28;97459.55;1778077;80;21103;-75
2021/01/20 03:34:07;;;;;;;5.87;3.12;;;;;;;1.57;79.42;97458.45;1778011;79;21476;-75
2021/01/20 03:36:33;;;;;;;4.10;3.20;;;;;;;1.54;79.50;97467.75;1778063;80;21107;-75
2021/01/20 03:38:59;;;;;;;7.90;5.05;;;;;;;1.54;79.42;97462.91;1777969;79;21027;-75
2021/01/20 03:41:26;;;;;;;8.83;5.53;;;;;;;1.54;79.62;97468.25;1778023;80;21440;-75
2021/01/20 03:43:52;;;;;;;6.15;3.05;;;;;;;1.56;79.54;97477.67;1778052;79;21134;-75
2021/01/20 03:46:18;;;;;;;8.18;4.92;;;;;;;1.60;79.82;97469.46;1777902;80;21043;-75
2021/01/20 03:48:44;;;;;;;4.53;3.27;;;;;;;1.60;79.87;97467.31;1753713;80;21075;-75
2021/01/20 03:51:11;;;;;;;4.20;3.10;;;;;;;1.62;79.99;97472.73;1777869;80;21119;-75
2021/01/20 03:53:37;;;;;;;5.00;2.83;;;;;;;1.66;79.87;97474.39;1777974;79;21416;-75
2021/01/20 03:56:03;;;;;;;4.00;3.25;;;;;;;1.66;79.82;97471.72;1777975;80;21250;-75
2021/01/20 03:58:29;;;;;;;6.33;3.22;;;;;;;1.69;79.69;97480.59;1777881;79;21023;-75
2021/01/20 04:00:56;;;;;;;6.47;2.55;;;;;;;1.69;79.66;97475.25;1778051;80;21424;-75
2021/01/20 04:03:22;;;;;;;9.50;5.97;;;;;;;1.74;79.61;97475.37;1778028;79;21087;-75
2021/01/20 04:05:48;;;;;;;4.62;3.08;;;;;;;1.74;79.76;97478.03;1777963;80;21515;-74
2021/01/20 04:08:15;;;;;;;3.20;1.92;;;;;;;1.79;79.85;97474.11;1777977;79;21934;-75
2021/01/20 04:10:41;;;;;;;5.78;2.90;;;;;;;1.87;79.83;97474.27;1777844;80;21134;-75
2021/01/20 04:13:07;;;;;;;5.28;3.02;;;;;;;1.83;79.68;97488.64;1777938;79;21102;-75
2021/01/20 04:15:33;;;;;;;3.12;2.55;;;;;;;1.84;79.78;97485.44;1777933;80;21146;-75
2021/01/20 04:17:59;;;;;;;3.30;2.35;;;;;;;1.84;79.70;97484.11;1777986;79;21421;-75
2021/01/20 04:20:25;;;;;;;4.28;2.90;;;;;;;1.84;79.71;97489.45;1778022;80;21192;-75
2021/01/20 04:22:52;;;;;;;3.92;2.30;;;;;;;1.88;79.82;97488.75;1777905;79;21063;-75
2021/01/20 04:25:18;;;;;;;4.83;3.22;;;;;;;1.92;79.71;97499.77;1777909;80;21126;-76
2021/01/20 04:27:44;;;;;;;5.03;2.67;;;;;;;1.95;79.71;97495.27;1778040;79;21559;-77
2021/01/20 04:30:11;;;;;;;2.80;2.10;;;;;;;1.98;79.94;97492.15;1778056;80;21118;-76
2021/01/20 04:32:38;;;;;;;3.45;2.30;;;;;;;1.98;79.95;97484.94;1777879;79;21281;-76
2021/01/20 04:35:06;;;;;;;3.72;2.77;;;;;;;2.00;80.05;97494.58;1777891;80;21117;-75
2021/01/20 04:37:32;;;;;;;3.63;2.47;;;;;;;1.99;80.03;97487.09;1778126;79;21071;-76
2021/01/20 04:39:58;;;;;;;4.78;3.02;;;;;;;1.99;79.97;97491.09;1778016;80;21122;-76
2021/01/20 04:42:24;;;;;;;5.50;3.62;;;;;;;2.01;80.07;97487.66;1777987;80;21094;-76
2021/01/20 04:44:51;;;;;;;4.35;2.75;;;;;;;2.05;79.90;97485.30;1777957;80;21189;-76
2021/01/20 04:47:17;;;;;;;4.75;2.95;;;;;;;2.07;80.05;97485.37;1777863;80;21055;-77
2021/01/20 04:49:45;;;;;;;2.58;1.90;;;;;;;2.11;80.22;97483.03;1777944;79;21147;-77
2021/01/20 04:52:15;;;;;;;4.72;2.40;;;;;;;2.10;80.33;97487.56;1777935;80;21149;-76
2021/01/20 04:54:44;;;;;;;4.35;3.50;;;;;;;2.11;80.55;97485.70;1777959;79;21475;-76
2021/01/20 04:57:12;;;;;;;6.67;3.80;;;;;;;2.14;80.20;97495.94;1778134;80;21964;-76
2021/01/20 04:59:41;;;;;;;4.33;2.67;;;;;;;2.14;80.04;97493.27;1778021;79;21028;-76
2021/01/20 05:02:09;;;;;;;3.58;2.80;;;;;;;2.12;80.04;97498.01;1778260;80;21424;-76
2021/01/20 05:04:37;;;;;;;6.12;3.40;;;;;;;2.12;79.95;97492.14;1778115;79;21413;-76
2021/01/20 05:07:05;;;;;;;4.92;3.62;;;;;;;2.16;80.05;97501.84;1777957;80;21500;-76
2021/01/20 05:09:31;;;;;;;17.65;16.02;;;;;;;2.17;80.25;97500.27;1777871;79;21186;-76
2021/01/20 05:11:57;;;;;;;5.17;3.20;;;;;;;2.20;80.30;97499.78;1778025;80;21047;-76
2021/01/20 05:14:24;;;;;;;6.45;3.72;;;;;;;2.23;80.29;97503.86;1778079;79;21089;-76
2021/01/20 05:16:52;;;;;;;4.20;3.10;;;;;;;2.28;80.36;97499.92;1778074;80;21039;-76
2021/01/20 05:19:38;;;;;;;4.85;2.98;;;;;;;2.26;80.26;97497.50;1778229;79;26016;-76
2021/01/20 05:22:07;;;;;;;9.35;7.17;;;;;;;2.29;80.15;97501.55;1778085;80;21178;-75
2021/01/20 05:24:36;;;;;;;13.77;7.90;;;;;;;2.24;80.07;97503.61;1778226;79;21068;-75
2021/01/20 05:27:03;;;;;;;13.03;8.20;;;;;;;2.23;80.11;97506.00;1778052;80;21499;-76
2021/01/20 05:29:29;;;;;;;15.65;7.03;;;;;;;2.24;80.04;97510.83;1778094;79;21071;-76
2021/01/20 05:31:55;;;;;;;6.60;3.98;;;;;;;2.25;80.14;97511.92;1778090;80;21024;-76
2021/01/20 05:34:27;;;;;;;8.13;5.53;;;;;;;2.30;80.08;97503.69;1778051;79;21126;-76
2021/01/20 05:37:10;;;;;;;10.68;5.92;;;;;;;2.31;80.12;97514.17;1778036;80;21071;-76
2021/01/20 05:39:38;;;;;;;8.83;5.17;;;;;;;2.35;80.27;97510.48;1777386;79;21083;-75
2021/01/20 05:42:10;;;;;;;6.83;4.00;;;;;;;2.38;80.26;97511.33;1778058;80;21130;-75
2021/01/20 05:44:38;;;;;;;5.95;3.75;;;;;;;2.38;80.24;97509.47;1777731;79;21389;-76
2021/01/20 05:47:11;;;;;;;9.23;4.75;;;;;;;2.39;80.07;97513.77;1778045;80;21224;-76
2021/01/20 05:49:37;;;;;;;5.00;3.55;;;;;;;2.37;80.09;97505.17;1777915;79;21031;-75
2021/01/20 05:52:12;;;;;;;5.12;3.52;;;;;;;2.41;79.93;97510.88;1781956;80;21488;-75
2021/01/20 05:54:39;;;;;;;9.15;5.83;;;;;;;2.39;80.07;97510.28;1785253;79;21035;-75
2021/01/20 05:57:21;;;;;;;6.15;3.90;;;;;;;2.42;80.12;97516.50;1756603;80;21039;-76
2021/01/20 05:59:50;;;;;;;14.53;6.70;;;;;;;2.43;80.18;97508.23;1785209;79;21547;-77
2021/01/20 06:02:18;;;;;;;7.17;5.05;;;;;;;2.43;80.23;97507.42;1785142;80;21037;-74
2021/01/20 06:04:44;;;;;;;3.85;2.65;;;;;;;2.44;80.58;97510.38;1785185;79;21118;-75
2021/01/20 06:07:12;;;;;;;18.65;9.28;;;;;;;2.51;80.17;97507.04;1785223;80;21141;-75
2021/01/20 06:09:42;;;;;;;18.55;12.35;;;;;;;2.49;80.27;97510.48;1785173;79;21031;-75
2021/01/20 06:12:12;;;;;;;18.57;8.85;;;;;;;2.49;80.14;97512.64;1785339;80;21296;-76
2021/01/20 06:14:38;;;;;;;41.37;20.55;;;;;;;2.50;79.69;97512.11;1784984;79;21051;-76
2021/01/20 06:17:22;;;;;;;19.05;10.08;;;;;;;2.51;79.87;97511.86;1785209;80;21488;-76
2021/01/20 06:19:55;;;;;;;15.68;8.60;;;;;;;2.53;80.11;97519.11;1785187;79;21099;-75
2021/01/20 06:22:21;;;;;;;12.60;8.65;;;;;;;2.54;80.03;97526.08;1785213;80;21523;-75
2021/01/20 06:24:49;;;;;;;17.12;9.43;;;;;;;2.53;80.14;97523.66;1785184;79;21190;-75
2021/01/20 06:27:39;;;;;;;22.62;11.68;;;;;;;2.54;80.16;97531.43;1785226;80;21035;-76
2021/01/20 06:30:16;;;;;;;31.77;15.83;;;;;;;2.57;80.12;97530.69;1784595;80;21090;-76
2021/01/20 06:32:45;;;;;;;23.92;13.20;;;;;;;2.53;80.10;97535.16;1781486;79;21153;-74
2021/01/20 06:35:11;;;;;;;15.70;7.80;;;;;;;2.53;80.13;97543.71;1784669;80;21110;-75
2021/01/20 06:37:45;;;;;;;25.50;11.97;;;;;;;2.48;80.31;97545.78;1785133;79;21193;-76
2021/01/20 06:40:23;;;;;;;17.30;11.73;;;;;;;2.52;80.39;97555.47;1785152;80;21130;-76
2021/01/20 06:42:51;;;;;;;26.07;18.87;;;;;;;2.58;80.54;97554.52;1785296;79;21484;-75
2021/01/20 06:45:23;;;;;;;11.85;7.83;;;;;;;2.61;80.60;97550.55;1785275;80;21094;-75
2021/01/20 06:48:02;;;;;;;9.73;6.37;;;;;;;2.66;80.59;97554.13;1784227;79;21218;-76
2021/01/20 06:50:51;;;;;;;11.03;5.90;;;;;;;2.70;80.52;97561.95;1785273;80;21192;-75
2021/01/20 06:53:17;;;;;;;10.08;5.67;;;;;;;2.75;80.61;97551.88;1785085;79;21039;-76
2021/01/20 06:55:44;;;;;;;12.18;4.35;;;;;;;2.77;80.36;97555.12;1785284;80;21142;-76
2021/01/20 06:58:30;;;;;;;12.23;6.90;;;;;;;2.80;80.12;97554.09;1785223;79;21022;-76
2021/01/20 07:01:02;;;;;;;11.63;7.08;;;;;;;2.75;80.26;97558.56;1785315;80;21063;-75
2021/01/20 07:03:54;;;;;;;7.20;5.45;;;;;;;2.74;80.22;97552.41;1782097;79;21305;-76
2021/01/20 07:06:39;;;;;;;10.00;6.60;;;;;;;2.81;80.17;97547.69;1783789;80;21102;-74
2021/01/20 07:09:09;;;;;;;12.88;7.10;;;;;;;2.82;80.37;97546.66;1764809;79;21408;-75
2021/01/20 07:12:00;;;;;;;8.40;5.37;;;;;;;2.90;80.28;97558.81;1785155;80;21102;-76
2021/01/20 07:14:30;;;;;;;7.00;3.45;;;;;;;3.01;80.26;97560.63;1785285;79;21078;-75
2021/01/20 07:16:56;;;;;;;13.08;6.65;;;;;;;3.13;80.32;97569.91;1785142;80;21128;-76
2021/01/20 07:19:25;;;;;;;7.00;4.87;;;;;;;3.18;79.97;97568.67;1785107;79;21103;-76
2021/01/20 07:21:52;;;;;;;8.58;5.15;;;;;;;3.17;80.05;97571.07;1755812;80;21118;-76
2021/01/20 07:24:19;;;;;;;16.35;11.33;;;;;;;3.16;80.00;97576.64;1785139;79;21043;-77
2021/01/20 07:26:46;;;;;;;31.05;12.90;;;;;;;3.19;79.69;97578.85;1785134;80;21181;-76
2021/01/20 07:29:21;;;;;;;46.35;19.15;;;;;;;3.18;79.71;97570.54;1785165;79;21461;-76
2021/01/20 07:31:49;;;;;;;21.02;12.80;;;;;;;3.18;79.78;97567.86;1785058;80;21217;-76
2021/01/20 07:34:18;;;;;;;10.03;5.47;;;;;;;3.19;79.83;97571.63;1785211;79;21480;-76
2021/01/20 07:36:45;;;;;;;29.45;14.03;;;;;;;3.31;79.84;97582.25;1785154;80;21516;-76
2021/01/20 07:39:21;;;;;;;29.98;15.95;;;;;;;3.23;79.78;97576.77;1785221;79;21094;-76
2021/01/20 07:41:56;;;;;;;108.78;49.38;;;;;;;3.23;79.84;97592.03;1785184;80;21268;-74
2021/01/20 07:44:23;;;;;;;66.65;33.30;;;;;;;3.23;79.74;97591.50;1785163;79;21499;-75
2021/01/20 07:47:04;;;;;;;25.92;21.17;;;;;;;3.24;79.78;97595.80;1785087;80;21292;-73
2021/01/20 07:49:31;;;;;;;230.70;102.30;;;;;;;3.28;79.70;97603.64;1756644;80;21121;-75
2021/01/20 07:52:09;;;;;;;87.57;45.88;;;;;;;3.33;79.51;97593.53;1785103;80;21491;-75
2021/01/20 07:54:39;;;;;;;29.92;17.50;;;;;;;3.32;79.40;97599.94;1785116;79;21197;-76
2021/01/20 07:57:09;;;;;;;31.55;16.40;;;;;;;3.34;79.37;97604.02;1785184;80;21047;-76
2021/01/20 07:59:35;;;;;;;35.40;19.27;;;;;;;3.37;79.33;97613.42;1785184;79;21448;-75
2021/01/20 08:02:09;;;;;;;24.70;13.93;;;;;;;3.38;79.34;97621.21;1785112;80;21452;-74
2021/01/20 08:04:36;;;;;;;13.78;5.67;;;;;;;3.42;79.47;97608.66;1785120;79;21004;-76
2021/01/20 08:07:02;;;;;;;10.40;5.25;;;;;;;3.53;79.15;97613.15;1785103;80;22343;-76
2021/01/20 08:09:44;;;;;;;12.25;6.47;;;;;;;3.54;79.07;97615.58;1785174;79;21074;-76
2021/01/20 08:12:15;;;;;;;75.85;34.10;;;;;;;3.55;79.10;97609.16;1785066;80;21059;-76
2021/01/20 08:14:42;;;;;;;14.25;8.58;;;;;;;3.59;78.89;97612.15;1784139;79;21098;-76
2021/01/20 08:17:11;;;;;;;53.75;28.52;;;;;;;3.57;78.97;97609.72;1785191;80;21040;-76
2021/01/20 08:19:37;;;;;;;71.53;38.90;;;;;;;3.59;78.96;97614.33;1785484;79;21420;-76
2021/01/20 08:22:13;;;;;;;101.97;52.67;;;;;;;3.60;78.92;97611.12;1785044;80;21208;-76
2021/01/20 08:24:46;;;;;;;18.05;11.22;;;;;;;3.60;78.65;97621.84;1785129;79;21097;-75
2021/01/20 08:27:13;;;;;;;122.28;56.10;;;;;;;3.63;78.78;97620.00;1785108;80;21415;-76
2021/01/20 08:29:50;;;;;;;31.40;16.62;;;;;;;3.67;78.75;97627.31;1785198;79;21058;-76
2021/01/20 08:32:16;;;;;;;32.78;17.65;;;;;;;3.76;78.86;97626.38;1785052;80;21187;-76
2021/01/20 08:34:47;;;;;;;12.30;7.80;;;;;;;3.86;78.75;97628.39;1785081;79;21079;-76
2021/01/20 08:37:18;;;;;;;50.15;20.45;;;;;;;3.94;78.41;97616.72;1785107;80;21051;-76
2021/01/20 08:39:54;;;;;;;89.85;41.90;;;;;;;4.03;78.72;97621.13;1785075;79;21106;-75
2021/01/20 08:42:28;;;;;;;28.23;15.40;;;;;;;4.17;78.67;97626.93;1785203;80;21142;-76
2021/01/20 08:45:13;;;;;;;32.53;17.90;;;;;;;4.31;78.01;97619.34;1785132;80;21198;-76
2021/01/20 08:48:02;;;;;;;40.63;22.62;;;;;;;4.42;77.53;97625.92;1785027;79;21436;-75
2021/01/20 08:50:35;;;;;;;53.00;28.57;;;;;;;4.43;77.53;97632.91;1785221;80;21127;-75
2021/01/20 08:53:05;;;;;;;206.43;90.80;;;;;;;4.50;77.28;97634.88;1781891;79;21134;-76
2021/01/20 08:55:38;;;;;;;31.07;17.87;;;;;;;4.56;77.32;97625.02;1780708;80;21126;-76
2021/01/20 08:58:32;;;;;;;125.12;50.35;;;;;;;4.59;76.29;97623.17;1780704;79;21268;-75
2021/01/20 09:01:09;;;;;;;80.03;33.90;;;;;;;4.64;76.63;97619.22;1780643;80;21067;-75
2021/01/20 09:03:37;;;;;;;169.05;67.05;;;;;;;4.75;77.05;97627.66;1780630;79;21071;-75
2021/01/20 09:06:05;;;;;;;55.10;24.55;;;;;;;4.88;77.34;97621.63;1780687;80;21138;-76
2021/01/20 09:08:35;;;;;;;141.00;56.40;;;;;;;5.01;77.23;97626.58;1781000;79;21108;-76
2021/01/20 09:11:02;;;;;;;70.52;29.32;;;;;;;5.12;77.16;97635.01;1780730;80;21243;-76
2021/01/20 09:13:28;;;;;;;41.45;21.10;;;;;;;5.20;76.85;97625.15;1780564;79;21086;-76
2021/01/20 09:15:55;;;;;;;57.53;25.27;;;;;;;5.30;75.63;97627.14;1731920;82;21179;-75
2021/01/20 09:18:23;;;;;;;55.73;29.32;;;;;;;5.28;75.54;97616.63;1780593;79;21099;-76
2021/01/20 09:20:50;;;;;;;90.12;41.48;;;;;;;5.28;75.51;97613.94;1762099;81;21113;-75
2021/01/20 09:23:17;;;;;;;52.17;25.82;;;;;;;5.35;75.94;97620.45;1780653;79;21196;-76
2021/01/20 09:25:43;;;;;;;39.63;22.37;;;;;;;5.40;75.65;97625.89;1762054;81;21131;-76
2021/01/20 09:28:09;;;;;;;59.03;30.02;;;;;;;5.41;75.19;97630.73;1749719;81;21110;-76
2021/01/20 09:30:36;;;;;;;73.87;38.83;;;;;;;5.45;75.23;97633.97;1780576;80;21206;-75
2021/01/20 09:33:03;;;;;;;100.75;48.63;;;;;;;5.49;75.03;97644.51;1780656;79;21464;-76
2021/01/20 09:35:30;;;;;;;52.48;28.47;;;;;;;5.59;75.31;97652.65;1780653;80;21240;-76
2021/01/20 09:37:56;;;;;;;69.75;36.77;;;;;;;5.70;75.21;97653.53;1780640;79;21035;-76
2021/01/20 09:40:24;;;;;;;64.27;31.00;;;;;;;5.78;75.04;97661.66;1780783;80;21138;-76
2021/01/20 09:42:51;;;;;;;59.70;31.75;;;;;;;5.81;74.39;97658.45;1762002;81;21108;-76
2021/01/20 09:45:19;;;;;;;46.75;22.20;;;;;;;5.87;74.48;97658.77;1780766;80;21499;-75
2021/01/20 09:47:46;;;;;;;32.58;18.60;;;;;;;5.98;74.27;97659.67;1731965;81;22071;-75
2021/01/20 09:50:14;;;;;;;53.08;30.43;;;;;;;6.08;73.89;97641.75;1780739;80;21091;-75
2021/01/20 09:52:41;;;;;;;352.03;172.03;;;;;;;6.06;73.90;97642.52;1731414;81;21044;-75
2021/01/20 09:55:07;;;;;;;57.23;29.98;;;;;;;6.11;73.98;97641.22;1759786;81;21060;-75
2021/01/20 09:57:34;;;;;;;44.75;25.95;;;;;;;6.27;74.17;97642.12;1729627;81;21088;-73
2021/01/20 10:00:02;;;;;;;51.08;29.82;;;;;;;6.38;74.01;97637.59;1734023;81;21216;-74
2021/01/20 10:02:28;;;;;;;10.18;6.42;;;;;;;6.49;73.76;97636.05;1729572;81;21115;-75
2021/01/20 10:04:55;;;;;;;23.00;12.35;;;;;;;6.49;72.60;97624.45;1759811;81;21096;-75
2021/01/20 10:07:23;;;;;;;15.72;10.03;;;;;;;6.54;71.35;97616.95;1729697;83;21144;-75
2021/01/20 10:09:50;;;;;;;31.87;17.27;;;;;;;6.42;71.43;97619.33;1760032;81;21104;-75
2021/01/20 10:12:18;;;;;;;14.58;8.63;;;;;;;6.49;70.72;97617.21;1729654;82;22063;-75
2021/01/20 10:14:44;;;;;;;20.65;11.97;;;;;;;6.48;69.04;97612.88;1759934;81;21523;-75
2021/01/20 10:17:11;;;;;;;20.75;12.85;;;;;;;6.37;70.55;97600.99;1729635;83;21171;-74
2021/01/20 10:19:37;;;;;;;31.05;18.05;;;;;;;6.40;70.22;97613.91;1759801;81;21036;-75
2021/01/20 10:22:03;;;;;;;17.02;10.88;;;;;;;6.32;71.00;97610.38;1729667;83;21556;-75
2021/01/20 10:24:29;;;;;;;31.85;19.40;;;;;;;6.23;69.57;97610.88;1759720;81;21117;-75
2021/01/20 10:26:56;;;;;;;27.73;15.45;;;;;;;6.33;70.61;97612.02;1729636;83;21158;-75
2021/01/20 10:29:22;;;;;;;20.97;12.70;;;;;;;6.43;70.90;97605.34;1759825;81;21541;-75
2021/01/20 10:31:50;;;;;;;21.70;12.70;;;;;;;6.50;70.24;97598.64;1729559;83;21175;-75
2021/01/20 10:34:16;;;;;;;147.75;52.25;;;;;;;6.57;69.53;97594.33;1759770;81;21390;-75
2021/01/20 10:36:42;;;;;;;52.83;27.30;;;;;;;6.63;69.78;97600.02;1729616;82;21191;-75
2021/01/20 10:39:09;;;;;;;58.65;36.80;;;;;;;6.64;69.21;97590.05;1759728;81;21513;-75
2021/01/20 10:41:36;;;;;;;13.08;7.97;;;;;;;6.63;69.21;97577.13;1729570;83;21104;-75
2021/01/20 10:44:02;;;;;;;49.33;25.88;;;;;;;6.64;68.19;97577.94;1759739;81;21116;-75
2021/01/20 10:46:28;;;;;;;35.20;20.20;;;;;;;6.67;67.99;97580.92;1729600;83;21164;-75
2021/01/20 10:48:56;;;;;;;34.90;18.42;;;;;;;6.58;68.62;97581.17;1759807;81;22044;-75
2021/01/20 10:51:23;;;;;;;11.30;6.30;;;;;;;6.60;69.04;97570.94;1729836;82;21504;-75
2021/01/20 10:53:50;;;;;;;15.03;7.40;;;;;;;6.62;68.66;97571.48;1754556;80;21069;-75
2021/01/20 10:56:16;;;;;;;13.28;8.58;;;;;;;6.68;68.07;97576.35;1735856;81;21110;-75
2021/01/20 10:58:42;;;;;;;11.97;6.50;;;;;;;6.67;67.34;97578.23;1735808;82;21110;-75
2021/01/20 11:01:08;;;;;;;17.37;10.28;;;;;;;6.66;68.14;97579.28;1735841;82;21249;-74
2021/01/20 11:03:35;;;;;;;11.70;7.05;;;;;;;6.70;67.65;97567.47;1735843;82;21187;-75
2021/01/20 11:06:01;;;;;;;12.47;7.15;;;;;;;6.71;67.95;97565.84;1735869;82;21169;-75
2021/01/20 11:08:27;;;;;;;10.75;5.25;;;;;;;6.88;66.22;97554.03;1735893;82;21063;-75
2021/01/20 11:10:53;;;;;;;18.80;12.05;;;;;;;6.84;66.34;97558.35;1735856;82;21173;-74
2021/01/20 11:13:19;;;;;;;15.28;6.47;;;;;;;6.82;66.36;97549.17;1735803;82;21856;-74
2021/01/20 11:15:45;;;;;;;11.35;7.92;;;;;;;6.74;67.42;97542.42;1735739;82;21207;-75
2021/01/20 11:18:13;;;;;;;6.12;4.37;;;;;;;6.82;68.03;97550.52;1735805;82;21110;-75
2021/01/20 11:20:40;;;;;;;10.20;5.00;;;;;;;6.95;66.96;97551.36;1736104;82;21525;-75
2021/01/20 11:23:07;;;;;;;9.43;5.30;;;;;;;6.94;67.42;97541.66;1735801;82;21215;-75
2021/01/20 11:25:34;;;;;;;10.13;5.50;;;;;;;7.06;66.22;97538.70;1735960;82;21945;-75
2021/01/20 11:28:00;;;;;;;4.42;2.50;;;;;;;6.94;67.05;97536.81;1735748;82;21074;-75
2021/01/20 11:30:26;;;;;;;13.83;8.50;;;;;;;7.03;66.85;97540.05;1735818;82;21094;-75
2021/01/20 11:32:53;;;;;;;20.50;11.60;;;;;;;7.02;66.85;97535.75;1735750;82;21034;-75
2021/01/20 11:35:19;;;;;;;36.00;20.55;;;;;;;6.99;66.66;97539.50;1735855;82;21157;-75
2021/01/20 11:37:45;;;;;;;30.35;19.12;;;;;;;6.95;67.20;97529.00;1735865;82;21266;-75
2021/01/20 11:40:12;;;;;;;27.52;11.65;;;;;;;6.92;67.73;97529.52;1735852;82;21577;-75
2021/01/20 11:42:39;;;;;;;19.92;10.82;;;;;;;6.94;67.10;97525.50;1735786;82;21113;-75
2021/01/20 11:45:06;;;;;;;25.15;13.48;;;;;;;6.81;67.16;97523.86;1735781;82;21098;-75
2021/01/20 11:47:32;;;;;;;20.40;11.45;;;;;;;6.70;67.41;97527.08;1717054;82;21110;-75
2021/01/20 11:49:58;;;;;;;25.12;12.58;;;;;;;6.64;67.76;97526.78;1735824;82;21213;-75